Time;durP1;ratioP1;P1;durP2;ratioP2;P2;SDS_P1;SDS_P2;PMS_P1;PMS_P2;Temp;Humidity;BMP_temperature;BMP_pressure;BME280_temperature;BME280_humidity;BME280_pressure;Samples;Min_cycle;Max_cycle;Signal;HPM_P1;HPM_P2
2021/09/08 00:01:59;;;;;;;138.65;50.90;;;;;;;;;;4982673;28;20529;-62
2021/09/08 00:04:26;;;;;;;130.50;49.03;;;;;;;;;;4979424;28;20054;-62
2021/09/08 00:06:53;;;;;;;136.20;48.63;;;;;;;;;;4974247;28;20571;-62
2021/09/08 00:09:19;;;;;;;136.23;49.23;;;;;;;;;;4979895;28;20637;-62
2021/09/08 00:11:46;;;;;;;130.98;46.97;;;;;;;;;;4978016;28;20141;-62
2021/09/08 00:14:13;;;;;;;131.82;49.38;;;;;;;;;;4982054;28;20053;-62
2021/09/08 00:16:40;;;;;;;123.50;46.10;;;;;;;;;;4981104;28;20062;-62
2021/09/08 00:19:06;;;;;;;133.98;48.15;;;;;;;;;;4981986;28;20146;-62
2021/09/08 00:21:33;;;;;;;130.48;48.45;;;;;;;;;;4980710;28;20126;-62
2021/09/08 00:23:59;;;;;;;139.35;50.17;;;;;;;;;;4981334;28;20351;-62
2021/09/08 00:26:26;;;;;;;143.60;50.83;;;;;;;;;;4977103;28;20138;-62
2021/09/08 00:28:52;;;;;;;135.13;49.00;;;;;;;;;;4982206;28;20137;-62
2021/09/08 00:31:19;;;;;;;151.48;48.08;;;;;;;;;;4981057;28;20396;-62
2021/09/08 00:33:45;;;;;;;137.38;46.67;;;;;;;;;;4982120;28;20086;-62
2021/09/08 00:36:13;;;;;;;144.52;49.63;;;;;;;;;;4983365;28;20126;-62
2021/09/08 00:38:39;;;;;;;156.00;51.03;;;;;;;;;;4973230;28;20129;-62
2021/09/08 00:41:06;;;;;;;145.07;50.92;;;;;;;;;;4977007;28;20457;-62
2021/09/08 00:43:32;;;;;;;149.55;51.08;;;;;;;;;;4983849;28;20129;-62
2021/09/08 00:45:59;;;;;;;148.43;49.95;;;;;;;;;;4981777;28;20133;-62
2021/09/08 00:48:25;;;;;;;151.27;51.30;;;;;;;;;;4976833;28;20046;-62
2021/09/08 00:50:52;;;;;;;143.95;51.47;;;;;;;;;;4977919;28;20089;-62
2021/09/08 00:53:19;;;;;;;145.32;53.55;;;;;;;;;;4979339;28;20472;-62
2021/09/08 00:55:46;;;;;;;177.93;55.25;;;;;;;;;;4978508;28;20133;-62
2021/09/08 00:58:13;;;;;;;;;;;;;;;;;;4976996;28;20369;-62
2021/09/08 01:00:40;;;;;;;169.73;54.80;;;;;;;;;;4977856;28;20033;-62
2021/09/08 01:03:06;;;;;;;150.70;50.87;;;;;;;;;;4985985;28;20046;-62
2021/09/08 01:05:34;;;;;;;;;;;;;;;;;;4977782;28;20499;-62
2021/09/08 01:08:01;;;;;;;161.38;54.75;;;;;;;;;;4979298;28;20207;-62
2021/09/08 01:10:27;;;;;;;172.93;57.80;;;;;;;;;;4981054;28;20123;-62
2021/09/08 01:12:54;;;;;;;166.20;53.03;;;;;;;;;;4984989;28;20138;-62
2021/09/08 01:15:20;;;;;;;184.05;57.28;;;;;;;;;;4983972;28;20046;-62
2021/09/08 01:17:47;;;;;;;148.70;50.53;;;;;;;;;;4984526;28;20463;-62
2021/09/08 01:20:15;;;;;;;162.48;54.60;;;;;;;;;;4974127;28;20089;-62
2021/09/08 01:22:52;;;;;;;155.02;52.22;;;;;;;;;;4977029;28;20498;-62
2021/09/08 01:25:26;;;;;;;160.60;51.70;;;;;;;;;;4982119;28;20100;-62
2021/09/08 01:27:53;;;;;;;155.82;52.55;;;;;;;;;;4985478;28;20093;-62
2021/09/08 01:30:19;;;;;;;;;;;;;;;;;;4987664;28;20137;-62
2021/09/08 01:32:47;;;;;;;136.80;49.28;;;;;;;;;;4975767;28;19972;-62
2021/09/08 01:35:14;;;;;;;131.73;46.83;;;;;;;;;;4980423;28;20050;-62
2021/09/08 01:37:41;;;;;;;130.10;47.30;;;;;;;;;;4983426;28;20055;-62
2021/09/08 01:40:08;;;;;;;136.90;48.30;;;;;;;;;;4981736;28;20089;-62
2021/09/08 01:42:34;;;;;;;108.83;39.73;;;;;;;;;;4981850;28;20137;-62
2021/09/08 01:45:01;;;;;;;112.97;45.38;;;;;;;;;;4978258;28;20134;-62
2021/09/08 01:47:27;;;;;;;127.63;47.40;;;;;;;;;;4974832;28;20050;-62
2021/09/08 01:49:54;;;;;;;118.75;46.15;;;;;;;;;;4983461;28;20344;-62
2021/09/08 01:52:21;;;;;;;129.82;48.15;;;;;;;;;;4982963;28;20493;-62
2021/09/08 01:54:47;;;;;;;135.70;46.92;;;;;;;;;;4984741;28;20202;-62
2021/09/08 01:57:14;;;;;;;133.68;47.05;;;;;;;;;;4986542;28;20133;-62
2021/09/08 01:59:40;;;;;;;144.25;48.95;;;;;;;;;;4982105;28;20491;-62
2021/09/08 02:02:07;;;;;;;130.23;47.10;;;;;;;;;;4985118;28;20085;-62
2021/09/08 02:04:34;;;;;;;122.03;44.08;;;;;;;;;;4984062;28;20062;-63
2021/09/08 02:07:00;;;;;;;110.17;44.30;;;;;;;;;;4985642;28;20114;-62
2021/09/08 02:09:27;;;;;;;120.63;44.25;;;;;;;;;;4980204;28;20505;-62
2021/09/08 02:11:53;;;;;;;114.40;43.58;;;;;;;;;;4989204;28;20562;-62
2021/09/08 02:14:20;;;;;;;113.00;42.80;;;;;;;;;;4979767;28;20050;-62
2021/09/08 02:16:47;;;;;;;121.95;44.92;;;;;;;;;;4984981;28;20489;-62
2021/09/08 02:19:13;;;;;;;117.82;42.78;;;;;;;;;;4984483;28;20086;-62
2021/09/08 02:21:40;;;;;;;103.75;42.42;;;;;;;;;;4990767;28;20129;-62
2021/09/08 02:24:06;;;;;;;112.70;42.92;;;;;;;;;;4987777;28;20054;-62
2021/09/08 02:26:33;;;;;;;98.47;39.72;;;;;;;;;;4986258;28;20141;-62
2021/09/08 02:28:59;;;;;;;91.53;38.30;;;;;;;;;;4985495;28;20093;-62
2021/09/08 02:31:27;;;;;;;106.18;41.83;;;;;;;;;;4982869;28;20397;-62
2021/09/08 02:33:53;;;;;;;102.93;40.22;;;;;;;;;;4984313;28;20495;-62
2021/09/08 02:36:21;;;;;;;99.67;39.40;;;;;;;;;;4987453;28;20077;-62
2021/09/08 02:38:48;;;;;;;102.78;40.22;;;;;;;;;;4988961;28;20606;-62
2021/09/08 02:41:15;;;;;;;106.45;39.92;;;;;;;;;;4982504;28;20050;-62
2021/09/08 02:43:41;;;;;;;104.83;38.83;;;;;;;;;;4983549;28;20420;-62
2021/09/08 02:46:07;;;;;;;85.18;35.97;;;;;;;;;;4982887;28;20499;-62
2021/09/08 02:48:34;;;;;;;92.18;37.13;;;;;;;;;;4987166;28;20050;-62
2021/09/08 02:51:02;;;;;;;94.00;37.85;;;;;;;;;;4979860;28;20589;-62
2021/09/08 02:53:29;;;;;;;81.35;34.58;;;;;;;;;;4982491;28;20649;-62
2021/09/08 02:55:55;;;;;;;89.18;35.97;;;;;;;;;;4985177;28;20073;-62
2021/09/08 02:58:23;;;;;;;87.45;36.28;;;;;;;;;;4985011;28;20047;-62
2021/09/08 03:00:49;;;;;;;89.57;36.55;;;;;;;;;;4982109;28;20077;-63
2021/09/08 03:03:16;;;;;;;77.65;35.15;;;;;;;;;;4987946;28;20472;-62
2021/09/08 03:05:43;;;;;;;86.47;35.30;;;;;;;;;;4985135;28;20062;-62
2021/09/08 03:08:10;;;;;;;82.73;35.27;;;;;;;;;;4981742;28;20145;-62
2021/09/08 03:10:37;;;;;;;77.25;34.28;;;;;;;;;;4982527;28;20058;-62
2021/09/08 03:13:05;;;;;;;82.68;34.90;;;;;;;;;;4975805;28;20459;-63
2021/09/08 03:15:35;;;;;;;73.38;33.00;;;;;;;;;;4979859;28;20397;-62
2021/09/08 03:18:02;;;;;;;75.47;34.25;;;;;;;;;;4986288;28;20105;-62
2021/09/08 03:20:28;;;;;;;78.05;34.70;;;;;;;;;;4982500;28;20137;-62
2021/09/08 03:22:55;;;;;;;73.93;33.10;;;;;;;;;;4978852;28;20612;-62
2021/09/08 03:25:21;;;;;;;76.43;33.00;;;;;;;;;;4988139;28;20698;-62
2021/09/08 03:27:48;;;;;;;70.78;31.88;;;;;;;;;;4979617;28;20122;-62
2021/09/08 03:30:14;;;;;;;69.95;31.10;;;;;;;;;;4983515;28;20070;-62
2021/09/08 03:32:41;;;;;;;63.97;30.15;;;;;;;;;;4985185;28;20070;-62
2021/09/08 03:35:08;;;;;;;62.65;29.45;;;;;;;;;;4984092;28;20061;-62
2021/09/08 03:37:35;;;;;;;61.60;29.75;;;;;;;;;;4979362;28;20426;-63
2021/09/08 03:40:02;;;;;;;58.83;28.53;;;;;;;;;;4978831;28;20050;-62
2021/09/08 03:42:29;;;;;;;69.65;30.65;;;;;;;;;;4985102;28;20038;-63
2021/09/08 03:44:55;;;;;;;61.75;28.58;;;;;;;;;;4982888;28;20077;-62
2021/09/08 03:47:22;;;;;;;63.25;30.33;;;;;;;;;;4979806;28;20590;-62
2021/09/08 03:49:48;;;;;;;64.50;29.33;;;;;;;;;;4976008;28;20082;-62
2021/09/08 03:52:16;;;;;;;55.63;27.27;;;;;;;;;;4972270;28;20126;-62
2021/09/08 03:54:43;;;;;;;61.80;28.92;;;;;;;;;;4981545;28;20078;-62
2021/09/08 03:57:10;;;;;;;57.35;25.75;;;;;;;;;;4985538;28;20129;-62
2021/09/08 03:59:36;;;;;;;57.95;28.02;;;;;;;;;;4984252;28;20086;-62
2021/09/08 04:02:03;;;;;;;58.00;28.50;;;;;;;;;;4982902;28;20130;-62
2021/09/08 04:04:30;;;;;;;56.58;27.92;;;;;;;;;;4978937;28;20058;-63
2021/09/08 04:06:58;;;;;;;55.77;26.67;;;;;;;;;;4982369;28;20077;-62
2021/09/08 04:09:29;;;;;;;60.35;28.40;;;;;;;;;;4981137;28;20051;-62
2021/09/08 04:11:56;;;;;;;54.15;26.25;;;;;;;;;;4985804;28;20482;-62
2021/09/08 04:14:22;;;;;;;52.60;25.63;;;;;;;;;;4983767;28;20133;-62
2021/09/08 04:16:49;;;;;;;52.85;25.90;;;;;;;;;;4981141;28;20157;-62
2021/09/08 04:19:16;;;;;;;52.30;26.97;;;;;;;;;;4981719;28;20138;-62
2021/09/08 04:21:42;;;;;;;54.90;27.55;;;;;;;;;;4970784;28;20489;-62
2021/09/08 04:24:10;;;;;;;63.97;27.77;;;;;;;;;;4979689;28;20074;-62
2021/09/08 04:26:36;;;;;;;56.75;26.85;;;;;;;;;;4980821;28;20125;-62
2021/09/08 04:29:03;;;;;;;60.90;28.27;;;;;;;;;;4983455;28;20060;-62
2021/09/08 04:31:29;;;;;;;52.88;26.15;;;;;;;;;;4982702;28;20140;-62
2021/09/08 04:33:56;;;;;;;52.67;25.52;;;;;;;;;;4978826;28;20050;-62
2021/09/08 04:36:22;;;;;;;50.65;25.63;;;;;;;;;;4980664;28;20061;-62
2021/09/08 04:38:50;;;;;;;52.92;23.83;;;;;;;;;;4976763;28;20081;-62
2021/09/08 04:41:16;;;;;;;60.92;24.20;;;;;;;;;;4982719;28;20056;-62
2021/09/08 04:43:44;;;;;;;47.45;23.45;;;;;;;;;;4981835;28;20130;-62
2021/09/08 04:46:10;;;;;;;;;;;;;;;;;;4980304;28;20133;-62
2021/09/08 04:48:37;;;;;;;49.28;24.52;;;;;;;;;;4983776;28;19925;-62
2021/09/08 04:51:03;;;;;;;57.78;26.42;;;;;;;;;;4981844;28;20100;-62
2021/09/08 04:53:30;;;;;;;61.60;26.13;;;;;;;;;;4978953;28;20133;-62
2021/09/08 04:55:57;;;;;;;57.22;26.70;;;;;;;;;;4978682;28;20907;-62
2021/09/08 04:58:24;;;;;;;57.70;26.70;;;;;;;;;;4982652;28;20100;-62
2021/09/08 05:00:51;;;;;;;59.30;27.08;;;;;;;;;;4984361;28;20078;-62
2021/09/08 05:03:18;;;;;;;55.95;27.13;;;;;;;;;;4982288;28;20137;-62
2021/09/08 05:05:45;;;;;;;55.05;27.15;;;;;;;;;;4986156;28;20061;-62
2021/09/08 05:08:12;;;;;;;57.40;27.90;;;;;;;;;;4981665;28;20503;-63
2021/09/08 05:10:38;;;;;;;59.92;28.33;;;;;;;;;;4983123;28;20050;-62
2021/09/08 05:13:06;;;;;;;57.58;27.98;;;;;;;;;;4979299;28;20130;-62
2021/09/08 05:15:32;;;;;;;63.55;26.77;;;;;;;;;;4981932;28;20150;-62
2021/09/08 05:17:59;;;;;;;53.72;27.50;;;;;;;;;;4982999;28;20521;-62
2021/09/08 05:20:26;;;;;;;49.85;24.83;;;;;;;;;;4983538;28;20056;-62
2021/09/08 05:22:53;;;;;;;59.78;26.60;;;;;;;;;;4986189;28;20155;-62
2021/09/08 05:25:20;;;;;;;63.53;27.05;;;;;;;;;;4979706;28;20137;-63
2021/09/08 05:27:46;;;;;;;57.15;26.65;;;;;;;;;;4984397;28;20503;-62
2021/09/08 05:30:12;;;;;;;61.47;27.15;;;;;;;;;;4982708;28;20050;-62
2021/09/08 05:32:39;;;;;;;53.97;25.77;;;;;;;;;;4983238;28;20082;-62
2021/09/08 05:35:06;;;;;;;62.05;26.90;;;;;;;;;;4986442;28;20303;-63
2021/09/08 05:37:33;;;;;;;58.63;27.55;;;;;;;;;;4985570;28;20076;-65
2021/09/08 05:40:00;;;;;;;60.53;26.93;;;;;;;;;;4984462;28;20176;-62
2021/09/08 05:42:26;;;;;;;59.22;27.42;;;;;;;;;;4983855;28;20345;-62
2021/09/08 05:44:53;;;;;;;53.88;26.42;;;;;;;;;;4986586;28;20133;-62
2021/09/08 05:47:19;;;;;;;56.88;26.40;;;;;;;;;;4976698;28;20555;-64
2021/09/08 05:49:46;;;;;;;52.33;25.83;;;;;;;;;;4988797;28;20151;-64
2021/09/08 05:52:13;;;;;;;49.50;25.00;;;;;;;;;;4984551;28;20100;-64
2021/09/08 05:54:39;;;;;;;52.50;24.65;;;;;;;;;;4982356;28;20133;-65
2021/09/08 05:57:06;;;;;;;52.90;24.83;;;;;;;;;;4977938;28;20577;-64
2021/09/08 05:59:33;;;;;;;46.70;24.33;;;;;;;;;;4987247;28;20051;-64
2021/09/08 06:02:00;;;;;;;46.78;22.50;;;;;;;;;;4988469;28;20089;-65
2021/09/08 06:04:27;;;;;;;44.75;23.05;;;;;;;;;;4985643;28;20514;-65
2021/09/08 06:06:55;;;;;;;40.33;20.88;;;;;;;;;;4975934;28;20209;-64
2021/09/08 06:09:22;;;;;;;38.10;21.20;;;;;;;;;;4981139;28;20121;-65
2021/09/08 06:11:48;;;;;;;41.97;21.35;;;;;;;;;;4983621;28;20153;-64
2021/09/08 06:14:15;;;;;;;37.63;21.37;;;;;;;;;;4983399;28;20051;-65
2021/09/08 06:16:42;;;;;;;35.22;19.77;;;;;;;;;;4983817;28;20219;-64
2021/09/08 06:19:08;;;;;;;33.17;18.90;;;;;;;;;;4979495;28;20489;-64
2021/09/08 06:21:35;;;;;;;30.10;16.90;;;;;;;;;;4989029;28;20136;-65
2021/09/08 06:24:03;;;;;;;30.50;16.65;;;;;;;;;;4974386;28;20518;-64
2021/09/08 06:26:29;;;;;;;24.42;15.48;;;;;;;;;;4984269;28;20059;-64
2021/09/08 06:29:00;;;;;;;29.85;14.98;;;;;;;;;;4986435;28;20061;-64
2021/09/08 06:31:26;;;;;;;27.95;14.88;;;;;;;;;;4983574;28;20083;-65
2021/09/08 06:33:53;;;;;;;31.02;14.52;;;;;;;;;;4979395;28;20129;-64
2021/09/08 06:36:20;;;;;;;26.65;13.95;;;;;;;;;;4976541;28;20082;-64
2021/09/08 06:38:47;;;;;;;22.17;13.43;;;;;;;;;;4983113;28;20077;-65
2021/09/08 06:41:13;;;;;;;21.17;13.07;;;;;;;;;;4982259;28;20134;-64
2021/09/08 06:43:40;;;;;;;23.10;13.27;;;;;;;;;;4983419;28;20064;-65
2021/09/08 06:46:06;;;;;;;20.33;12.75;;;;;;;;;;4979267;28;20137;-64
2021/09/08 06:48:33;;;;;;;19.67;12.23;;;;;;;;;;4988835;28;20085;-64
2021/09/08 06:50:59;;;;;;;23.98;12.43;;;;;;;;;;4976609;28;20542;-64
2021/09/08 06:53:26;;;;;;;21.52;11.70;;;;;;;;;;4980321;28;20134;-64
2021/09/08 06:55:53;;;;;;;18.08;11.45;;;;;;;;;;4976841;28;20566;-65
2021/09/08 06:58:19;;;;;;;18.87;10.37;;;;;;;;;;4983861;28;20584;-64
2021/09/08 07:00:49;;;;;;;19.90;10.13;;;;;;;;;;4981013;28;20093;-64
2021/09/08 07:03:15;;;;;;;16.20;9.17;;;;;;;;;;4983041;28;20425;-64
2021/09/08 07:05:44;;;;;;;18.05;9.90;;;;;;;;;;4975125;28;20458;-65
2021/09/08 07:08:14;;;;;;;14.93;8.90;;;;;;;;;;4981372;28;20047;-65
2021/09/08 07:10:40;;;;;;;14.05;8.75;;;;;;;;;;4980363;28;20134;-65
2021/09/08 07:13:07;;;;;;;12.85;9.00;;;;;;;;;;4974884;28;20073;-63
2021/09/08 07:15:34;;;;;;;13.65;8.82;;;;;;;;;;4983369;28;20480;-63
2021/09/08 07:18:00;;;;;;;16.48;9.43;;;;;;;;;;4976105;28;20051;-62
2021/09/08 07:20:27;;;;;;;13.20;8.68;;;;;;;;;;4979118;28;20086;-63
2021/09/08 07:22:54;;;;;;;13.23;8.88;;;;;;;;;;4980935;28;20050;-62
2021/09/08 07:25:20;;;;;;;17.35;9.40;;;;;;;;;;4980044;28;20129;-63
2021/09/08 07:27:51;;;;;;;15.95;9.38;;;;;;;;;;4982719;28;20485;-63
2021/09/08 07:30:18;;;;;;;15.95;9.50;;;;;;;;;;4979750;28;20082;-62
2021/09/08 07:32:45;;;;;;;14.45;9.00;;;;;;;;;;4978855;28;20047;-63
2021/09/08 07:35:11;;;;;;;18.58;9.40;;;;;;;;;;4978802;28;20052;-63
2021/09/08 07:37:38;;;;;;;14.27;8.73;;;;;;;;;;4983209;28;20089;-63
2021/09/08 07:40:05;;;;;;;14.70;7.95;;;;;;;;;;4982448;28;20085;-63
2021/09/08 07:42:32;;;;;;;15.05;9.02;;;;;;;;;;4985358;28;20154;-63
2021/09/08 07:44:59;;;;;;;15.05;8.57;;;;;;;;;;4979434;28;20057;-63
2021/09/08 07:47:25;;;;;;;13.82;8.77;;;;;;;;;;4979041;28;20149;-63
2021/09/08 07:49:52;;;;;;;15.05;8.15;;;;;;;;;;4982526;28;20058;-63
2021/09/08 07:52:19;;;;;;;12.38;7.95;;;;;;;;;;4980919;28;20129;-63
2021/09/08 07:54:45;;;;;;;13.68;7.60;;;;;;;;;;4979268;28;20086;-63
2021/09/08 07:57:12;;;;;;;12.48;7.85;;;;;;;;;;4979819;28;20480;-63
2021/09/08 07:59:38;;;;;;;13.93;7.72;;;;;;;;;;4976989;28;20108;-63
2021/09/08 08:02:05;;;;;;;11.50;7.40;;;;;;;;;;4979470;28;20089;-63
2021/09/08 08:04:32;;;;;;;14.80;7.57;;;;;;;;;;4975077;28;20462;-63
2021/09/08 08:06:59;;;;;;;12.73;7.72;;;;;;;;;;4981078;28;20521;-63
2021/09/08 08:09:25;;;;;;;14.02;8.40;;;;;;;;;;4977565;28;20078;-63
2021/09/08 08:11:52;;;;;;;14.50;8.82;;;;;;;;;;4984387;28;20146;-62
2021/09/08 08:14:18;;;;;;;14.95;8.15;;;;;;;;;;4978756;28;20130;-63
2021/09/08 08:16:45;;;;;;;12.80;8.03;;;;;;;;;;4983123;28;20049;-63
2021/09/08 08:19:12;;;;;;;11.70;8.60;;;;;;;;;;4981224;28;20117;-62
2021/09/08 08:21:38;;;;;;;13.85;8.07;;;;;;;;;;4983177;28;20549;-63
2021/09/08 08:24:05;;;;;;;13.52;7.68;;;;;;;;;;4979420;28;20121;-63
2021/09/08 08:26:31;;;;;;;14.65;7.93;;;;;;;;;;4976560;28;20089;-63
2021/09/08 08:28:58;;;;;;;12.20;7.25;;;;;;;;;;4983066;28;20133;-62
2021/09/08 08:31:25;;;;;;;17.98;7.68;;;;;;;;;;4978017;28;20049;-62
2021/09/08 08:33:51;;;;;;;13.43;7.65;;;;;;;;;;4979143;28;20062;-62
2021/09/08 08:36:18;;;;;;;10.77;7.45;;;;;;;;;;4984471;28;20046;-63
2021/09/08 08:38:44;;;;;;;13.73;7.40;;;;;;;;;;4981512;28;20053;-63
2021/09/08 08:41:11;;;;;;;10.45;7.68;;;;;;;;;;4974399;28;20561;-63
2021/09/08 08:43:38;;;;;;;14.10;7.65;;;;;;;;;;4982168;28;20568;-63
2021/09/08 08:46:05;;;;;;;9.73;7.65;;;;;;;;;;4980992;28;20138;-63
2021/09/08 08:48:32;;;;;;;12.50;7.70;;;;;;;;;;4979158;28;20133;-63
2021/09/08 08:50:59;;;;;;;13.85;7.22;;;;;;;;;;4979000;28;20142;-63
2021/09/08 08:53:25;;;;;;;11.75;7.82;;;;;;;;;;4977785;28;20518;-63
2021/09/08 08:55:51;;;;;;;12.88;7.00;;;;;;;;;;4975793;28;20330;-63
2021/09/08 08:58:19;;;;;;;;;;;;;;;;;;4977712;28;20085;-62
2021/09/08 09:00:45;;;;;;;9.68;6.32;;;;;;;;;;4979745;28;20440;-63
2021/09/08 09:03:25;;;;;;;11.18;5.93;;;;;;;;;;4980683;28;20065;-62
2021/09/08 09:06:02;;;;;;;7.90;6.20;;;;;;;;;;4976898;28;20173;-63
2021/09/08 09:08:35;;;;;;;7.32;5.70;;;;;;;;;;4980189;28;20121;-63
2021/09/08 09:11:02;;;;;;;6.78;5.32;;;;;;;;;;4979580;28;20058;-63
2021/09/08 09:13:33;;;;;;;7.38;5.32;;;;;;;;;;4980627;28;20326;-63
2021/09/08 09:16:02;;;;;;;10.82;5.65;;;;;;;;;;4978558;28;20134;-63
2021/09/08 09:18:35;;;;;;;6.50;4.60;;;;;;;;;;4985066;28;20050;-63
2021/09/08 09:21:07;;;;;;;9.55;4.53;;;;;;;;;;4977913;28;20509;-63
2021/09/08 09:23:45;;;;;;;7.13;4.47;;;;;;;;;;4974015;28;20118;-62
2021/09/08 09:26:12;;;;;;;9.13;5.05;;;;;;;;;;4982222;28;20144;-63
2021/09/08 09:28:39;;;;;;;8.48;5.57;;;;;;;;;;4981174;28;20141;-63
2021/09/08 09:31:06;;;;;;;;;;;;;;;;;;4986181;28;20506;-63
2021/09/08 09:33:32;;;;;;;5.78;3.75;;;;;;;;;;4977935;28;19937;-63
2021/09/08 09:36:14;;;;;;;4.63;3.15;;;;;;;;;;4972107;28;20490;-63
2021/09/08 09:38:40;;;;;;;7.45;3.30;;;;;;;;;;4975062;28;20051;-63
2021/09/08 09:41:08;;;;;;;5.15;3.78;;;;;;;;;;4978719;28;20133;-63
2021/09/08 09:43:39;;;;;;;5.55;3.60;;;;;;;;;;4982191;28;20133;-63
2021/09/08 09:46:06;;;;;;;3.65;3.10;;;;;;;;;;4976095;28;20537;-63
2021/09/08 09:48:34;;;;;;;4.10;3.03;;;;;;;;;;4986056;28;20525;-63
2021/09/08 09:51:01;;;;;;;4.20;2.72;;;;;;;;;;4981259;28;20066;-63
2021/09/08 09:53:28;;;;;;;;;;;;;;;;;;4980297;28;20130;-63
2021/09/08 09:55:54;;;;;;;6.05;3.35;;;;;;;;;;4982371;28;19968;-63
2021/09/08 09:58:21;;;;;;;3.97;3.20;;;;;;;;;;4985250;28;20134;-63
2021/09/08 10:00:47;;;;;;;6.28;3.15;;;;;;;;;;4979979;28;20150;-63
2021/09/08 10:03:14;;;;;;;5.43;3.78;;;;;;;;;;4980357;28;20414;-63
2021/09/08 10:05:41;;;;;;;5.97;3.35;;;;;;;;;;4982839;28;20073;-63
2021/09/08 10:08:08;;;;;;;4.37;3.23;;;;;;;;;;4997303;28;20077;-63
2021/09/08 10:10:35;;;;;;;6.70;3.60;;;;;;;;;;4997897;28;20081;-63
2021/09/08 10:13:05;;;;;;;7.65;3.35;;;;;;;;;;5002557;28;20054;-63
2021/09/08 10:15:32;;;;;;;11.25;3.80;;;;;;;;;;4999421;28;20054;-62
2021/09/08 10:18:07;;;;;;;5.65;3.42;;;;;;;;;;4999310;28;20089;-63
2021/09/08 10:20:34;;;;;;;6.30;4.00;;;;;;;;;;4994092;28;20422;-63
2021/09/08 10:23:08;;;;;;;6.45;4.32;;;;;;;;;;5001807;28;20157;-63
2021/09/08 10:25:35;;;;;;;6.45;3.80;;;;;;;;;;5001428;28;20108;-63
2021/09/08 10:28:03;;;;;;;11.05;3.75;;;;;;;;;;5005640;28;20092;-63
2021/09/08 10:30:37;;;;;;;9.13;4.22;;;;;;;;;;5001942;28;20093;-63
2021/09/08 10:33:05;;;;;;;7.60;4.70;;;;;;;;;;4998309;28;20784;-63
2021/09/08 10:35:38;;;;;;;7.63;4.22;;;;;;;;;;4994455;28;20051;-63
2021/09/08 10:38:16;;;;;;;7.07;4.45;;;;;;;;;;4993007;28;20205;-63
2021/09/08 10:40:43;;;;;;;9.07;4.85;;;;;;;;;;5002376;28;20484;-63
2021/09/08 10:43:11;;;;;;;7.18;4.30;;;;;;;;;;5001275;28;20089;-63
2021/09/08 10:45:47;;;;;;;7.28;4.50;;;;;;;;;;5001941;28;20497;-63
2021/09/08 10:48:33;;;;;;;8.02;4.10;;;;;;;;;;5001011;28;20052;-63
2021/09/08 10:51:00;;;;;;;8.75;4.32;;;;;;;;;;5004613;28;20623;-63
2021/09/08 10:53:30;;;;;;;9.52;4.55;;;;;;;;;;5007979;28;20478;-63
2021/09/08 10:55:57;;;;;;;9.50;4.30;;;;;;;;;;5003047;28;20121;-63
2021/09/08 10:58:24;;;;;;;8.63;4.30;;;;;;;;;;5009136;28;20090;-63
2021/09/08 11:00:50;;;;;;;7.05;4.55;;;;;;;;;;5003373;28;20052;-63
2021/09/08 11:03:17;;;;;;;6.35;4.40;;;;;;;;;;5004841;28;20042;-63
2021/09/08 11:05:51;;;;;;;5.50;3.83;;;;;;;;;;5016314;28;20050;-63
2021/09/08 11:08:22;;;;;;;6.82;4.53;;;;;;;;;;5022994;28;20132;-63
2021/09/08 11:11:05;;;;;;;10.82;4.57;;;;;;;;;;5026470;28;20046;-63
2021/09/08 11:13:32;;;;;;;6.45;4.10;;;;;;;;;;5020530;28;20053;-63
2021/09/08 11:15:59;;;;;;;6.00;4.20;;;;;;;;;;5019474;28;20141;-63
2021/09/08 11:18:35;;;;;;;6.65;4.57;;;;;;;;;;5023713;28;20065;-63
2021/09/08 11:21:04;;;;;;;8.82;4.03;;;;;;;;;;5022832;28;20141;-63
2021/09/08 11:23:31;;;;;;;7.32;4.18;;;;;;;;;;5021017;28;20080;-63
2021/09/08 11:26:05;;;;;;;6.72;4.50;;;;;;;;;;5021849;28;20053;-63
2021/09/08 11:28:32;;;;;;;7.40;4.60;;;;;;;;;;5015538;28;20572;-63
2021/09/08 11:30:59;;;;;;;7.20;5.00;;;;;;;;;;5023471;28;20589;-63
2021/09/08 11:33:35;;;;;;;6.68;4.85;;;;;;;;;;5024439;28;20716;-63
2021/09/08 11:36:09;;;;;;;5.88;4.32;;;;;;;;;;5022450;28;20474;-63
2021/09/08 11:38:35;;;;;;;8.13;5.43;;;;;;;;;;5016893;28;20133;-63
2021/09/08 11:41:04;;;;;;;6.95;4.88;;;;;;;;;;5022725;28;20132;-63
2021/09/08 11:43:35;;;;;;;7.75;5.53;;;;;;;;;;5023673;28;20128;-63
2021/09/08 11:46:18;;;;;;;9.55;5.50;;;;;;;;;;5020312;28;20046;-63
2021/09/08 11:48:46;;;;;;;8.93;5.47;;;;;;;;;;5022443;28;20052;-63
2021/09/08 11:51:14;;;;;;;9.25;5.10;;;;;;;;;;5020081;28;20085;-63
2021/09/08 11:53:40;;;;;;;;;;;;;;;;;;5021511;28;20077;-63
2021/09/08 11:56:13;;;;;;;8.95;5.00;;;;;;;;;;5020249;28;20369;-63
2021/09/08 11:58:42;;;;;;;7.47;5.53;;;;;;;;;;5024723;28;20528;-63
2021/09/08 12:01:10;;;;;;;6.45;5.05;;;;;;;;;;5026340;28;20096;-63
2021/09/08 12:03:44;;;;;;;9.82;5.00;;;;;;;;;;5024415;28;20045;-63
2021/09/08 12:06:12;;;;;;;7.22;4.88;;;;;;;;;;5025964;28;20049;-62
2021/09/08 12:08:53;;;;;;;6.47;4.05;;;;;;;;;;5020146;28;20042;-63
2021/09/08 12:11:29;;;;;;;5.93;4.13;;;;;;;;;;5021899;28;20129;-63
2021/09/08 12:13:56;;;;;;;5.78;4.03;;;;;;;;;;5020408;28;20089;-63
2021/09/08 12:16:38;;;;;;;8.50;4.30;;;;;;;;;;5024612;28;20132;-63
2021/09/08 12:19:10;;;;;;;11.15;4.53;;;;;;;;;;5020043;28;20560;-63
2021/09/08 12:21:37;;;;;;;6.38;3.70;;;;;;;;;;5017008;28;20136;-63
2021/09/08 12:24:22;;;;;;;6.28;4.22;;;;;;;;;;5024598;28;20133;-63
2021/09/08 12:26:50;;;;;;;10.10;4.18;;;;;;;;;;5022283;28;20128;-63
2021/09/08 12:29:17;;;;;;;5.68;3.80;;;;;;;;;;5021237;28;20144;-63
2021/09/08 12:31:55;;;;;;;9.40;3.88;;;;;;;;;;5018896;28;20120;-63
2021/09/08 12:34:23;;;;;;;7.25;4.03;;;;;;;;;;5027016;28;20128;-63
2021/09/08 12:36:49;;;;;;;;;;;;;;;;;;5022579;28;20141;-63
2021/09/08 12:39:16;;;;;;;6.00;3.58;;;;;;;;;;5023588;28;20024;-63
2021/09/08 12:41:53;;;;;;;9.82;4.38;;;;;;;;;;5020648;28;20160;-63
2021/09/08 12:44:27;;;;;;;7.25;3.92;;;;;;;;;;5019401;28;20168;-63
2021/09/08 12:46:54;;;;;;;5.75;4.07;;;;;;;;;;5029998;28;20133;-63
2021/09/08 12:49:25;;;;;;;6.57;4.13;;;;;;;;;;5020292;28;20058;-63
2021/09/08 12:51:52;;;;;;;7.75;4.28;;;;;;;;;;5023765;28;20121;-63
2021/09/08 12:54:18;;;;;;;;;;;;;;;;;;5022206;28;20049;-63
2021/09/08 12:56:47;;;;;;;6.20;4.32;;;;;;;;;;5024057;28;20013;-63
2021/09/08 12:59:18;;;;;;;8.23;4.70;;;;;;;;;;5023460;28;20076;-63
2021/09/08 13:01:45;;;;;;;7.15;4.47;;;;;;;;;;5021454;28;20045;-63
2021/09/08 13:04:15;;;;;;;7.50;4.30;;;;;;;;;;5020864;28;20515;-63
2021/09/08 13:06:41;;;;;;;6.63;4.10;;;;;;;;;;5021048;28;20059;-63
2021/09/08 13:09:08;;;;;;;5.50;3.97;;;;;;;;;;5021081;28;20137;-63
2021/09/08 13:11:36;;;;;;;5.85;4.22;;;;;;;;;;5021661;28;20288;-63
2021/09/08 13:14:06;;;;;;;6.65;4.20;;;;;;;;;;5018256;28;20133;-63
2021/09/08 13:16:33;;;;;;;5.53;3.63;;;;;;;;;;5013722;28;20081;-63
2021/09/08 13:19:00;;;;;;;6.00;3.40;;;;;;;;;;5014734;28;20050;-63
2021/09/08 13:21:27;;;;;;;5.45;3.65;;;;;;;;;;5023756;28;20132;-63
2021/09/08 13:23:53;;;;;;;5.80;3.55;;;;;;;;;;5020940;28;20080;-63
2021/09/08 13:26:20;;;;;;;5.65;3.88;;;;;;;;;;5026309;28;20085;-63
2021/09/08 13:28:47;;;;;;;6.28;4.30;;;;;;;;;;5022886;28;20376;-63
2021/09/08 13:31:13;;;;;;;5.53;3.80;;;;;;;;;;5021730;28;20088;-63
2021/09/08 13:33:40;;;;;;;5.78;3.80;;;;;;;;;;5022293;28;20080;-63
2021/09/08 13:36:07;;;;;;;6.18;3.75;;;;;;;;;;5022935;28;20137;-63
2021/09/08 13:38:33;;;;;;;5.33;3.50;;;;;;;;;;5018990;28;20077;-63
2021/09/08 13:41:00;;;;;;;5.17;3.60;;;;;;;;;;5028522;28;20050;-63
2021/09/08 13:43:26;;;;;;;6.18;4.00;;;;;;;;;;5027044;28;20077;-63
2021/09/08 13:45:53;;;;;;;6.78;4.00;;;;;;;;;;5025574;28;20204;-63
2021/09/08 13:48:21;;;;;;;6.15;3.67;;;;;;;;;;5019123;28;20075;-63
2021/09/08 13:50:47;;;;;;;;;;;;;;;;;;5025767;28;20129;-63
2021/09/08 13:53:13;;;;;;;9.00;4.45;;;;;;;;;;5021488;28;19921;-63
2021/09/08 13:55:40;;;;;;;6.35;4.30;;;;;;;;;;5021426;28;20061;-63
2021/09/08 13:58:07;;;;;;;6.03;4.40;;;;;;;;;;5021548;28;20570;-63
2021/09/08 14:00:34;;;;;;;8.18;4.22;;;;;;;;;;5027208;28;20283;-63
2021/09/08 14:03:02;;;;;;;8.15;4.28;;;;;;;;;;5020948;28;20049;-63
2021/09/08 14:05:29;;;;;;;10.63;4.50;;;;;;;;;;5024540;28;20100;-63
2021/09/08 14:07:58;;;;;;;6.03;4.32;;;;;;;;;;5023475;28;20084;-63
2021/09/08 14:10:26;;;;;;;6.05;4.53;;;;;;;;;;5019576;28;20077;-63
2021/09/08 14:12:52;;;;;;;8.00;4.45;;;;;;;;;;5022569;28;20055;-63
2021/09/08 14:15:19;;;;;;;7.33;4.67;;;;;;;;;;5021208;28;20137;-63
2021/09/08 14:17:46;;;;;;;7.18;4.30;;;;;;;;;;5024510;28;20386;-63
2021/09/08 14:20:13;;;;;;;6.63;4.35;;;;;;;;;;5023347;28;20050;-63
2021/09/08 14:22:40;;;;;;;8.63;4.80;;;;;;;;;;5024496;28;20128;-63
2021/09/08 14:25:06;;;;;;;8.10;4.20;;;;;;;;;;5017251;28;20129;-63
2021/09/08 14:27:33;;;;;;;;;;;;;;;;;;5028658;28;20129;-62
2021/09/08 14:30:02;;;;;;;7.55;4.22;;;;;;;;;;5023866;28;19921;-63
2021/09/08 14:32:28;;;;;;;7.97;4.20;;;;;;;;;;5022502;28;20078;-62
2021/09/08 14:34:55;;;;;;;6.18;4.25;;;;;;;;;;5023673;28;20085;-63